Flight Briefing for GRZ504

Departure Arrival
Fairbanks International Airport (PAFA)
Click to view FAA NOTAMS
Ted Stevens Anchorage International Airport (PANC)
Click to view FAA NOTAMS
Departure Time Arrival Time
N/A N/A
Aircraft Distance
B727-200F 227nm
Departure METAR Arrival METAR
PAFA 221153Z 03009KT 10SM FEW090 SCT200 03/M06 A2951 RMK AO2 SLP999 T00281056 10039 21011 56011 PNO $ PANC 221153Z 15008KT 10SM FEW065 06/01 A2947 RMK AO2 SLP982 60000 T00560006 10067 20028 50000
Suggested Route
PUYVO2 PUYVO KROTO4


View recent IFR Routes data
Notes



Charts and Procedures

Charts for PAFA
No chart available
Charts for PANC
No chart available

Windy.com Weather Map